sensor_id;sensor_type;location;lat;lon;timestamp;pressure;altitude;pressure_sealevel;temperature;humidity
63339;BME280;47485;51.378;-1.342;2023-04-26T00:01:29;100476.46;;;7.19;23.36
63339;BME280;47485;51.378;-1.342;2023-04-26T00:03:56;100478.23;;;6.35;23.65
63339;BME280;47485;51.378;-1.342;2023-04-26T00:06:23;100477.29;;;7.03;22.97
63339;BME280;47485;51.378;-1.342;2023-04-26T00:08:50;100474.07;;;7.65;22.89
63339;BME280;47485;51.378;-1.342;2023-04-26T00:11:17;100468.66;;;6.27;23.09
63339;BME280;47485;51.378;-1.342;2023-04-26T00:13:44;100466.54;;;7.87;22.84
63339;BME280;47485;51.378;-1.342;2023-04-26T00:16:12;100466.62;;;9.62;21.43
63339;BME280;47485;51.378;-1.342;2023-04-26T00:18:39;100475.19;;;8.35;22.43
63339;BME280;47485;51.378;-1.342;2023-04-26T00:21:06;100468.08;;;6.57;23.04
63339;BME280;47485;51.378;-1.342;2023-04-26T00:23:33;100463.89;;;9.30;22.81
63339;BME280;47485;51.378;-1.342;2023-04-26T00:26:00;100463.89;;;7.76;22.73
63339;BME280;47485;51.378;-1.342;2023-04-26T00:28:28;100464.02;;;7.36;23.39
63339;BME280;47485;51.378;-1.342;2023-04-26T00:30:55;100468.52;;;9.59;22.29
63339;BME280;47485;51.378;-1.342;2023-04-26T00:33:22;100467.52;;;8.69;22.67
63339;BME280;47485;51.378;-1.342;2023-04-26T00:35:49;100463.90;;;7.82;22.92
63339;BME280;47485;51.378;-1.342;2023-04-26T00:38:15;100456.82;;;7.35;22.77
63339;BME280;47485;51.378;-1.342;2023-04-26T00:40:42;100454.63;;;7.12;23.08
63339;BME280;47485;51.378;-1.342;2023-04-26T00:43:10;100443.03;;;6.35;23.32
63339;BME280;47485;51.378;-1.342;2023-04-26T00:45:37;100433.04;;;7.56;22.99
63339;BME280;47485;51.378;-1.342;2023-04-26T00:48:04;100424.17;;;8.70;22.66
63339;BME280;47485;51.378;-1.342;2023-04-26T00:50:32;100421.44;;;7.19;23.44
63339;BME280;47485;51.378;-1.342;2023-04-26T00:53:01;100420.55;;;8.34;22.34
63339;BME280;47485;51.378;-1.342;2023-04-26T00:55:28;100423.04;;;6.14;23.87
63339;BME280;47485;51.378;-1.342;2023-04-26T00:57:54;100422.10;;;7.98;23.47
63339;BME280;47485;51.378;-1.342;2023-04-26T01:00:21;100422.45;;;8.08;23.80
63339;BME280;47485;51.378;-1.342;2023-04-26T01:02:48;100419.49;;;6.15;24.06
63339;BME280;47485;51.378;-1.342;2023-04-26T01:05:15;100418.23;;;6.09;24.49
63339;BME280;47485;51.378;-1.342;2023-04-26T01:07:42;100415.47;;;6.64;24.11
63339;BME280;47485;51.378;-1.342;2023-04-26T01:10:10;100407.43;;;7.39;23.48
63339;BME280;47485;51.378;-1.342;2023-04-26T01:12:37;100393.57;;;8.57;23.11
63339;BME280;47485;51.378;-1.342;2023-04-26T01:15:05;100388.06;;;6.64;23.66
63339;BME280;47485;51.378;-1.342;2023-04-26T01:17:33;100391.05;;;7.42;23.22
63339;BME280;47485;51.378;-1.342;2023-04-26T01:20:01;100390.01;;;7.16;23.40
63339;BME280;47485;51.378;-1.342;2023-04-26T01:22:31;100389.88;;;6.80;23.59
63339;BME280;47485;51.378;-1.342;2023-04-26T01:25:00;100394.61;;;7.49;22.90
63339;BME280;47485;51.378;-1.342;2023-04-26T01:27:29;100403.61;;;8.65;22.82
63339;BME280;47485;51.378;-1.342;2023-04-26T01:29:56;100409.97;;;8.85;22.08
63339;BME280;47485;51.378;-1.342;2023-04-26T01:32:23;100414.60;;;8.37;22.58
63339;BME280;47485;51.378;-1.342;2023-04-26T01:34:49;100418.75;;;8.82;22.51
63339;BME280;47485;51.378;-1.342;2023-04-26T01:37:16;100416.83;;;7.56;22.48
63339;BME280;47485;51.378;-1.342;2023-04-26T01:39:43;100417.20;;;6.93;22.71
63339;BME280;47485;51.378;-1.342;2023-04-26T01:42:10;100416.92;;;6.54;23.14
63339;BME280;47485;51.378;-1.342;2023-04-26T01:44:37;100415.27;;;6.39;23.48
63339;BME280;47485;51.378;-1.342;2023-04-26T01:47:04;100414.98;;;8.96;23.08
63339;BME280;47485;51.378;-1.342;2023-04-26T01:49:30;100417.12;;;5.94;23.99
63339;BME280;47485;51.378;-1.342;2023-04-26T01:51:58;100419.71;;;7.90;23.52
63339;BME280;47485;51.378;-1.342;2023-04-26T01:54:25;100421.27;;;8.24;23.42
63339;BME280;47485;51.378;-1.342;2023-04-26T01:56:52;100421.71;;;7.73;23.19
63339;BME280;47485;51.378;-1.342;2023-04-26T01:59:19;100426.45;;;7.66;23.21
63339;BME280;47485;51.378;-1.342;2023-04-26T02:01:45;100427.12;;;7.54;23.02
63339;BME280;47485;51.378;-1.342;2023-04-26T02:04:12;100427.28;;;8.00;23.01
63339;BME280;47485;51.378;-1.342;2023-04-26T02:06:39;100425.34;;;7.42;23.41
63339;BME280;47485;51.378;-1.342;2023-04-26T02:09:06;100421.89;;;7.91;22.83
63339;BME280;47485;51.378;-1.342;2023-04-26T02:11:33;100420.53;;;7.31;22.90
63339;BME280;47485;51.378;-1.342;2023-04-26T02:14:01;100413.01;;;8.45;22.55
63339;BME280;47485;51.378;-1.342;2023-04-26T02:16:28;100418.86;;;7.35;23.09
63339;BME280;47485;51.378;-1.342;2023-04-26T02:18:55;100420.98;;;7.01;22.91
63339;BME280;47485;51.378;-1.342;2023-04-26T02:21:22;100417.88;;;8.04;22.60
63339;BME280;47485;51.378;-1.342;2023-04-26T02:23:49;100415.68;;;8.34;22.85
63339;BME280;47485;51.378;-1.342;2023-04-26T02:26:15;100412.50;;;8.73;22.97
63339;BME280;47485;51.378;-1.342;2023-04-26T02:28:42;100411.65;;;6.78;23.48
63339;BME280;47485;51.378;-1.342;2023-04-26T02:31:09;100407.30;;;9.05;22.76
63339;BME280;47485;51.378;-1.342;2023-04-26T02:33:36;100409.59;;;6.56;23.37
63339;BME280;47485;51.378;-1.342;2023-04-26T02:36:04;100410.14;;;6.45;23.10
63339;BME280;47485;51.378;-1.342;2023-04-26T02:38:32;100405.68;;;7.35;22.92
63339;BME280;47485;51.378;-1.342;2023-04-26T02:40:59;100405.94;;;8.01;23.27
63339;BME280;47485;51.378;-1.342;2023-04-26T02:43:27;100409.68;;;8.04;23.21
63339;BME280;47485;51.378;-1.342;2023-04-26T02:45:54;100414.51;;;7.12;23.20
63339;BME280;47485;51.378;-1.342;2023-04-26T02:48:21;100412.56;;;6.76;23.44
63339;BME280;47485;51.378;-1.342;2023-04-26T02:50:48;100410.46;;;7.42;23.64
63339;BME280;47485;51.378;-1.342;2023-04-26T02:53:14;100407.50;;;8.58;22.93
63339;BME280;47485;51.378;-1.342;2023-04-26T02:55:41;100410.36;;;8.53;22.93
63339;BME280;47485;51.378;-1.342;2023-04-26T02:58:08;100408.33;;;8.48;23.38
63339;BME280;47485;51.378;-1.342;2023-04-26T03:00:35;100403.51;;;7.60;23.28
63339;BME280;47485;51.378;-1.342;2023-04-26T03:03:03;100399.86;;;7.19;23.43
63339;BME280;47485;51.378;-1.342;2023-04-26T03:05:30;100397.71;;;8.23;23.37
63339;BME280;47485;51.378;-1.342;2023-04-26T03:07:56;100394.21;;;6.98;23.14
63339;BME280;47485;51.378;-1.342;2023-04-26T03:10:23;100390.00;;;6.84;23.45
63339;BME280;47485;51.378;-1.342;2023-04-26T03:12:50;100389.20;;;7.10;23.42
63339;BME280;47485;51.378;-1.342;2023-04-26T03:15:17;100390.66;;;6.99;23.37
63339;BME280;47485;51.378;-1.342;2023-04-26T03:17:43;100388.30;;;6.77;23.63
63339;BME280;47485;51.378;-1.342;2023-04-26T03:20:11;100391.40;;;6.31;23.89
63339;BME280;47485;51.378;-1.342;2023-04-26T03:22:37;100388.47;;;5.78;24.14
63339;BME280;47485;51.378;-1.342;2023-04-26T03:25:05;100386.32;;;7.98;23.41
63339;BME280;47485;51.378;-1.342;2023-04-26T03:27:32;100388.05;;;6.11;24.57
63339;BME280;47485;51.378;-1.342;2023-04-26T03:29:59;100383.76;;;7.44;23.88
63339;BME280;47485;51.378;-1.342;2023-04-26T03:32:26;100375.34;;;7.46;23.55
63339;BME280;47485;51.378;-1.342;2023-04-26T03:34:53;100375.47;;;7.16;23.70
63339;BME280;47485;51.378;-1.342;2023-04-26T03:37:20;100375.94;;;7.22;24.00
63339;BME280;47485;51.378;-1.342;2023-04-26T03:39:46;100372.64;;;7.51;23.18
63339;BME280;47485;51.378;-1.342;2023-04-26T03:42:13;100371.27;;;7.03;23.79
63339;BME280;47485;51.378;-1.342;2023-04-26T03:44:40;100364.66;;;6.96;23.22
63339;BME280;47485;51.378;-1.342;2023-04-26T03:47:07;100364.22;;;6.63;23.47
63339;BME280;47485;51.378;-1.342;2023-04-26T03:49:34;100355.80;;;8.58;23.26
63339;BME280;47485;51.378;-1.342;2023-04-26T03:52:02;100345.72;;;8.43;23.28
63339;BME280;47485;51.378;-1.342;2023-04-26T03:54:29;100344.39;;;8.00;23.22
63339;BME280;47485;51.378;-1.342;2023-04-26T03:56:56;100349.19;;;6.72;23.40
63339;BME280;47485;51.378;-1.342;2023-04-26T03:59:23;100347.01;;;6.60;23.46
63339;BME280;47485;51.378;-1.342;2023-04-26T04:01:50;100345.77;;;6.39;23.61
63339;BME280;47485;51.378;-1.342;2023-04-26T04:04:16;100346.27;;;6.93;23.33
63339;BME280;47485;51.378;-1.342;2023-04-26T04:06:43;100344.53;;;8.35;23.42
63339;BME280;47485;51.378;-1.342;2023-04-26T04:09:10;100345.49;;;7.34;23.95
63339;BME280;47485;51.378;-1.342;2023-04-26T04:11:37;100343.26;;;8.36;23.42
63339;BME280;47485;51.378;-1.342;2023-04-26T04:14:04;100344.75;;;6.39;23.62
63339;BME280;47485;51.378;-1.342;2023-04-26T04:16:30;100342.85;;;6.96;23.62
63339;BME280;47485;51.378;-1.342;2023-04-26T04:18:57;100332.54;;;8.16;23.53
63339;BME280;47485;51.378;-1.342;2023-04-26T04:21:24;100333.19;;;6.77;23.73
63339;BME280;47485;51.378;-1.342;2023-04-26T04:23:50;100328.48;;;7.54;23.62
63339;BME280;47485;51.378;-1.342;2023-04-26T04:26:17;100326.82;;;6.67;23.77
63339;BME280;47485;51.378;-1.342;2023-04-26T04:28:44;100323.51;;;8.85;23.28
63339;BME280;47485;51.378;-1.342;2023-04-26T04:31:11;100323.70;;;8.48;23.49
63339;BME280;47485;51.378;-1.342;2023-04-26T04:33:38;100324.70;;;6.63;23.72
63339;BME280;47485;51.378;-1.342;2023-04-26T04:36:06;100324.15;;;7.71;23.43
63339;BME280;47485;51.378;-1.342;2023-04-26T04:38:33;100322.84;;;7.04;23.55
63339;BME280;47485;51.378;-1.342;2023-04-26T04:41:01;100322.60;;;7.68;23.46
63339;BME280;47485;51.378;-1.342;2023-04-26T04:43:28;100326.17;;;5.54;24.27
63339;BME280;47485;51.378;-1.342;2023-04-26T04:45:54;100325.45;;;6.29;24.05
63339;BME280;47485;51.378;-1.342;2023-04-26T04:48:21;100324.08;;;7.63;24.28
63339;BME280;47485;51.378;-1.342;2023-04-26T04:50:49;100326.83;;;6.65;24.28
63339;BME280;47485;51.378;-1.342;2023-04-26T04:53:16;100326.82;;;7.86;23.76
63339;BME280;47485;51.378;-1.342;2023-04-26T04:55:43;100327.32;;;6.08;24.75
63339;BME280;47485;51.378;-1.342;2023-04-26T04:58:09;100324.89;;;7.22;24.10
63339;BME280;47485;51.378;-1.342;2023-04-26T05:00:36;100326.52;;;8.15;23.91
63339;BME280;47485;51.378;-1.342;2023-04-26T05:03:03;100327.92;;;7.12;23.92
63339;BME280;47485;51.378;-1.342;2023-04-26T05:05:30;100331.82;;;7.55;24.24
63339;BME280;47485;51.378;-1.342;2023-04-26T05:07:57;100331.04;;;8.45;24.09
63339;BME280;47485;51.378;-1.342;2023-04-26T05:10:24;100337.03;;;5.42;25.02
63339;BME280;47485;51.378;-1.342;2023-04-26T05:12:51;100334.87;;;6.39;24.46
63339;BME280;47485;51.378;-1.342;2023-04-26T05:15:18;100333.61;;;7.28;24.29
63339;BME280;47485;51.378;-1.342;2023-04-26T05:17:45;100336.70;;;7.49;24.23
63339;BME280;47485;51.378;-1.342;2023-04-26T05:20:12;100335.09;;;6.87;23.96
63339;BME280;47485;51.378;-1.342;2023-04-26T05:22:39;100334.41;;;6.21;24.43
63339;BME280;47485;51.378;-1.342;2023-04-26T05:25:07;100336.14;;;6.85;24.69
63339;BME280;47485;51.378;-1.342;2023-04-26T05:27:34;100329.70;;;7.91;24.27
63339;BME280;47485;51.378;-1.342;2023-04-26T05:30:02;100328.84;;;7.05;24.61
63339;BME280;47485;51.378;-1.342;2023-04-26T05:32:29;100322.33;;;7.55;23.99
63339;BME280;47485;51.378;-1.342;2023-04-26T05:34:56;100327.49;;;7.38;24.78
63339;BME280;47485;51.378;-1.342;2023-04-26T05:37:23;100338.31;;;6.65;24.64
63339;BME280;47485;51.378;-1.342;2023-04-26T05:39:50;100345.85;;;6.35;24.75
63339;BME280;47485;51.378;-1.342;2023-04-26T05:42:17;100349.29;;;4.29;26.62
63339;BME280;47485;51.378;-1.342;2023-04-26T05:44:44;100348.65;;;6.26;25.85
63339;BME280;47485;51.378;-1.342;2023-04-26T05:47:11;100349.98;;;6.76;25.40
63339;BME280;47485;51.378;-1.342;2023-04-26T05:49:38;100351.91;;;5.96;25.54
63339;BME280;47485;51.378;-1.342;2023-04-26T05:52:05;100348.54;;;3.84;26.54
63339;BME280;47485;51.378;-1.342;2023-04-26T05:54:32;100345.11;;;6.90;25.21
63339;BME280;47485;51.378;-1.342;2023-04-26T05:56:59;100343.59;;;6.91;24.95
63339;BME280;47485;51.378;-1.342;2023-04-26T05:59:26;100342.98;;;6.13;24.86
63339;BME280;47485;51.378;-1.342;2023-04-26T06:01:53;100346.81;;;4.70;26.14
63339;BME280;47485;51.378;-1.342;2023-04-26T06:04:20;100353.24;;;6.03;25.30
63339;BME280;47485;51.378;-1.342;2023-04-26T06:06:47;100354.50;;;7.52;24.77
63339;BME280;47485;51.378;-1.342;2023-04-26T06:09:14;100354.21;;;7.01;25.20
63339;BME280;47485;51.378;-1.342;2023-04-26T06:11:41;100354.07;;;4.98;25.80
63339;BME280;47485;51.378;-1.342;2023-04-26T06:14:07;100351.33;;;5.67;26.57
63339;BME280;47485;51.378;-1.342;2023-04-26T06:16:35;100356.90;;;6.13;26.06
63339;BME280;47485;51.378;-1.342;2023-04-26T06:19:02;100356.45;;;7.04;25.39
63339;BME280;47485;51.378;-1.342;2023-04-26T06:21:29;100350.25;;;5.49;26.59
63339;BME280;47485;51.378;-1.342;2023-04-26T06:23:56;100344.79;;;3.29;27.16
63339;BME280;47485;51.378;-1.342;2023-04-26T06:26:23;100341.49;;;5.59;25.98
63339;BME280;47485;51.378;-1.342;2023-04-26T06:28:50;100341.15;;;6.80;25.54
63339;BME280;47485;51.378;-1.342;2023-04-26T06:31:17;100343.06;;;6.05;26.23
63339;BME280;47485;51.378;-1.342;2023-04-26T06:33:44;100344.08;;;5.10;26.24
63339;BME280;47485;51.378;-1.342;2023-04-26T06:36:12;100335.85;;;5.40;26.40
63339;BME280;47485;51.378;-1.342;2023-04-26T06:38:38;100334.30;;;5.29;27.35
63339;BME280;47485;51.378;-1.342;2023-04-26T06:41:06;100331.51;;;3.46;29.22
63339;BME280;47485;51.378;-1.342;2023-04-26T06:43:32;100327.15;;;2.31;29.47
63339;BME280;47485;51.378;-1.342;2023-04-26T06:45:59;100329.58;;;2.99;28.96
63339;BME280;47485;51.378;-1.342;2023-04-26T06:48:26;100334.69;;;3.23;30.20
63339;BME280;47485;51.378;-1.342;2023-04-26T06:50:53;100336.60;;;1.43;31.45
63339;BME280;47485;51.378;-1.342;2023-04-26T06:53:20;100337.77;;;1.13;31.18
63339;BME280;47485;51.378;-1.342;2023-04-26T06:55:47;100337.05;;;3.36;30.80
63339;BME280;47485;51.378;-1.342;2023-04-26T06:58:14;100340.52;;;0.64;31.48
63339;BME280;47485;51.378;-1.342;2023-04-26T07:00:40;100338.01;;;3.15;30.67
63339;BME280;47485;51.378;-1.342;2023-04-26T07:03:07;100337.59;;;0.91;31.66
63339;BME280;47485;51.378;-1.342;2023-04-26T07:05:34;100341.87;;;0.83;32.08
63339;BME280;47485;51.378;-1.342;2023-04-26T07:08:02;100341.44;;;-0.22;31.85
63339;BME280;47485;51.378;-1.342;2023-04-26T07:10:29;100342.23;;;-0.22;33.33
63339;BME280;47485;51.378;-1.342;2023-04-26T07:12:55;100347.23;;;0.45;31.98
63339;BME280;47485;51.378;-1.342;2023-04-26T07:15:22;100339.89;;;2.96;31.12
63339;BME280;47485;51.378;-1.342;2023-04-26T07:17:49;100340.32;;;1.44;32.56
63339;BME280;47485;51.378;-1.342;2023-04-26T07:20:16;100340.90;;;1.33;32.27
63339;BME280;47485;51.378;-1.342;2023-04-26T07:22:43;100343.06;;;1.16;32.27
63339;BME280;47485;51.378;-1.342;2023-04-26T07:25:10;100343.44;;;0.38;32.32
63339;BME280;47485;51.378;-1.342;2023-04-26T07:27:37;100346.99;;;0.62;32.60
63339;BME280;47485;51.378;-1.342;2023-04-26T07:30:05;100343.82;;;1.59;31.25
63339;BME280;47485;51.378;-1.342;2023-04-26T07:32:32;100345.69;;;4.11;29.37
63339;BME280;47485;51.378;-1.342;2023-04-26T07:34:59;100348.15;;;3.85;29.69
63339;BME280;47485;51.378;-1.342;2023-04-26T07:37:26;100345.78;;;6.06;27.82
63339;BME280;47485;51.378;-1.342;2023-04-26T07:39:53;100351.47;;;1.97;30.60
63339;BME280;47485;51.378;-1.342;2023-04-26T07:42:19;100351.58;;;3.18;30.14
63339;BME280;47485;51.378;-1.342;2023-04-26T07:44:47;100350.00;;;2.23;29.94
63339;BME280;47485;51.378;-1.342;2023-04-26T07:47:14;100348.26;;;3.62;28.23
63339;BME280;47485;51.378;-1.342;2023-04-26T07:49:41;100348.18;;;4.70;28.89
63339;BME280;47485;51.378;-1.342;2023-04-26T07:52:08;100351.74;;;5.56;28.60
63339;BME280;47485;51.378;-1.342;2023-04-26T07:54:35;100354.11;;;4.44;28.60
63339;BME280;47485;51.378;-1.342;2023-04-26T07:57:03;100354.25;;;4.23;28.93
63339;BME280;47485;51.378;-1.342;2023-04-26T07:59:31;100351.69;;;5.15;28.55
63339;BME280;47485;51.378;-1.342;2023-04-26T08:01:57;100357.14;;;3.99;29.70
63339;BME280;47485;51.378;-1.342;2023-04-26T08:04:32;100360.27;;;3.05;30.71
63339;BME280;47485;51.378;-1.342;2023-04-26T08:06:59;100357.49;;;3.57;29.99
63339;BME280;47485;51.378;-1.342;2023-04-26T08:09:27;100362.46;;;0.41;32.82
63339;BME280;47485;51.378;-1.342;2023-04-26T08:11:54;100358.13;;;3.21;30.66
63339;BME280;47485;51.378;-1.342;2023-04-26T08:14:21;100356.76;;;3.82;29.39
63339;BME280;47485;51.378;-1.342;2023-04-26T08:16:49;100353.53;;;4.65;29.55
63339;BME280;47485;51.378;-1.342;2023-04-26T08:19:16;100354.05;;;1.26;31.76
63339;BME280;47485;51.378;-1.342;2023-04-26T08:21:43;100346.90;;;3.30;30.88
63339;BME280;47485;51.378;-1.342;2023-04-26T08:24:10;100344.89;;;3.05;30.90
63339;BME280;47485;51.378;-1.342;2023-04-26T08:26:37;100344.75;;;1.63;32.89
63339;BME280;47485;51.378;-1.342;2023-04-26T08:29:04;100345.89;;;0.23;33.21
63339;BME280;47485;51.378;-1.342;2023-04-26T08:31:31;100342.41;;;0.55;33.37
63339;BME280;47485;51.378;-1.342;2023-04-26T08:33:58;100345.26;;;0.72;33.16
63339;BME280;47485;51.378;-1.342;2023-04-26T08:36:24;100336.54;;;3.48;30.83
63339;BME280;47485;51.378;-1.342;2023-04-26T08:38:52;100346.05;;;1.02;33.40
63339;BME280;47485;51.378;-1.342;2023-04-26T08:41:22;100344.30;;;-0.00;33.86
63339;BME280;47485;51.378;-1.342;2023-04-26T08:43:49;100346.21;;;1.54;35.03
63339;BME280;47485;51.378;-1.342;2023-04-26T08:46:18;100345.31;;;1.02;32.84
63339;BME280;47485;51.378;-1.342;2023-04-26T08:48:48;100345.41;;;-0.31;36.09
63339;BME280;47485;51.378;-1.342;2023-04-26T08:51:20;100343.18;;;2.31;32.38
63339;BME280;47485;51.378;-1.342;2023-04-26T08:53:50;100338.74;;;3.60;32.01
63339;BME280;47485;51.378;-1.342;2023-04-26T08:56:21;100335.92;;;2.63;32.08
63339;BME280;47485;51.378;-1.342;2023-04-26T08:58:50;100340.74;;;3.14;31.60
63339;BME280;47485;51.378;-1.342;2023-04-26T09:01:17;100341.24;;;1.66;32.05
63339;BME280;47485;51.378;-1.342;2023-04-26T09:03:45;100346.65;;;1.73;32.93
63339;BME280;47485;51.378;-1.342;2023-04-26T09:06:14;100344.29;;;3.01;32.03
63339;BME280;47485;51.378;-1.342;2023-04-26T09:08:41;100347.26;;;0.56;34.16
63339;BME280;47485;51.378;-1.342;2023-04-26T09:11:10;100342.02;;;2.88;32.94
63339;BME280;47485;51.378;-1.342;2023-04-26T09:13:36;100338.39;;;3.54;31.15
63339;BME280;47485;51.378;-1.342;2023-04-26T09:16:04;100336.58;;;4.07;30.77
63339;BME280;47485;51.378;-1.342;2023-04-26T09:18:31;100336.88;;;3.58;30.92
63339;BME280;47485;51.378;-1.342;2023-04-26T09:21:05;100336.13;;;1.97;32.17
63339;BME280;47485;51.378;-1.342;2023-04-26T09:23:33;100341.54;;;1.12;32.43
63339;BME280;47485;51.378;-1.342;2023-04-26T09:26:33;100343.10;;;1.52;32.37
63339;BME280;47485;51.378;-1.342;2023-04-26T09:29:15;100340.07;;;2.86;31.83
63339;BME280;47485;51.378;-1.342;2023-04-26T09:31:43;100336.07;;;4.01;30.23
63339;BME280;47485;51.378;-1.342;2023-04-26T09:34:12;100338.51;;;4.56;30.04
63339;BME280;47485;51.378;-1.342;2023-04-26T09:36:49;100342.93;;;2.17;32.71
63339;BME280;47485;51.378;-1.342;2023-04-26T09:39:29;100344.43;;;4.79;29.72
63339;BME280;47485;51.378;-1.342;2023-04-26T09:41:57;100343.41;;;2.95;32.16
63339;BME280;47485;51.378;-1.342;2023-04-26T09:44:24;100343.58;;;3.93;30.07
63339;BME280;47485;51.378;-1.342;2023-04-26T09:47:01;100345.26;;;5.93;28.88
63339;BME280;47485;51.378;-1.342;2023-04-26T09:49:30;100348.58;;;2.02;31.65
63339;BME280;47485;51.378;-1.342;2023-04-26T09:52:00;100346.48;;;3.63;31.40
63339;BME280;47485;51.378;-1.342;2023-04-26T09:54:44;100346.82;;;4.62;30.05
63339;BME280;47485;51.378;-1.342;2023-04-26T09:57:13;100349.33;;;6.76;28.67
63339;BME280;47485;51.378;-1.342;2023-04-26T09:59:41;100347.98;;;6.52;27.60
63339;BME280;47485;51.378;-1.342;2023-04-26T10:02:13;100352.96;;;3.21;30.15
63339;BME280;47485;51.378;-1.342;2023-04-26T10:04:41;100350.46;;;2.62;31.65
63339;BME280;47485;51.378;-1.342;2023-04-26T10:07:11;100347.92;;;4.34;30.57
63339;BME280;47485;51.378;-1.342;2023-04-26T10:09:38;100351.56;;;0.22;31.77
63339;BME280;47485;51.378;-1.342;2023-04-26T10:12:08;100350.76;;;0.75;33.27
63339;BME280;47485;51.378;-1.342;2023-04-26T10:14:36;100342.79;;;4.11;30.11
63339;BME280;47485;51.378;-1.342;2023-04-26T10:17:04;100344.40;;;1.25;32.16
63339;BME280;47485;51.378;-1.342;2023-04-26T10:19:33;100341.95;;;1.66;32.91
63339;BME280;47485;51.378;-1.342;2023-04-26T10:22:04;100340.27;;;4.98;29.51
63339;BME280;47485;51.378;-1.342;2023-04-26T10:24:33;100339.88;;;4.74;29.00
63339;BME280;47485;51.378;-1.342;2023-04-26T10:27:02;100339.75;;;3.68;28.78
63339;BME280;47485;51.378;-1.342;2023-04-26T10:30:06;100343.78;;;4.50;30.16
63339;BME280;47485;51.378;-1.342;2023-04-26T10:33:10;100336.51;;;3.05;31.84
63339;BME280;47485;51.378;-1.342;2023-04-26T10:35:59;100331.16;;;2.31;30.32
63339;BME280;47485;51.378;-1.342;2023-04-26T10:38:26;100330.51;;;5.60;29.16
63339;BME280;47485;51.378;-1.342;2023-04-26T10:40:53;100327.25;;;4.59;30.22
63339;BME280;47485;51.378;-1.342;2023-04-26T10:43:27;100326.93;;;1.42;31.14
63339;BME280;47485;51.378;-1.342;2023-04-26T10:45:54;100321.57;;;4.76;29.42
63339;BME280;47485;51.378;-1.342;2023-04-26T10:48:27;100319.02;;;6.74;27.98
63339;BME280;47485;51.378;-1.342;2023-04-26T10:51:11;100319.09;;;7.31;27.48
63339;BME280;47485;51.378;-1.342;2023-04-26T10:54:10;100315.74;;;7.45;26.80
63339;BME280;47485;51.378;-1.342;2023-04-26T10:56:53;100313.97;;;3.53;29.09
63339;BME280;47485;51.378;-1.342;2023-04-26T10:59:20;100313.12;;;2.88;29.50
63339;BME280;47485;51.378;-1.342;2023-04-26T11:01:47;100307.71;;;5.50;27.97
63339;BME280;47485;51.378;-1.342;2023-04-26T11:04:14;100310.31;;;4.34;30.07
63339;BME280;47485;51.378;-1.342;2023-04-26T11:06:47;100308.36;;;3.55;29.79
63339;BME280;47485;51.378;-1.342;2023-04-26T11:09:48;100311.91;;;3.90;30.41
63339;BME280;47485;51.378;-1.342;2023-04-26T11:12:15;100311.34;;;4.11;28.90
63339;BME280;47485;51.378;-1.342;2023-04-26T11:14:44;100312.53;;;3.63;30.06
63339;BME280;47485;51.378;-1.342;2023-04-26T11:17:12;100307.35;;;4.89;28.44
63339;BME280;47485;51.378;-1.342;2023-04-26T11:19:40;100310.65;;;4.36;28.69
63339;BME280;47485;51.378;-1.342;2023-04-26T11:22:07;100310.59;;;3.27;29.84
63339;BME280;47485;51.378;-1.342;2023-04-26T11:24:35;100311.64;;;6.12;27.10
63339;BME280;47485;51.378;-1.342;2023-04-26T11:27:07;100312.05;;;7.45;26.20
63339;BME280;47485;51.378;-1.342;2023-04-26T11:29:35;100310.76;;;6.49;26.49
63339;BME280;47485;51.378;-1.342;2023-04-26T11:32:04;100317.90;;;6.31;27.63
63339;BME280;47485;51.378;-1.342;2023-04-26T11:34:32;100314.50;;;7.11;26.71
63339;BME280;47485;51.378;-1.342;2023-04-26T11:37:00;100317.32;;;7.42;27.31
63339;BME280;47485;51.378;-1.342;2023-04-26T11:39:27;100310.23;;;7.33;25.74
63339;BME280;47485;51.378;-1.342;2023-04-26T11:42:03;100311.98;;;6.08;26.87
63339;BME280;47485;51.378;-1.342;2023-04-26T11:44:31;100304.28;;;6.62;26.32
63339;BME280;47485;51.378;-1.342;2023-04-26T11:46:58;100301.94;;;6.09;26.67
63339;BME280;47485;51.378;-1.342;2023-04-26T11:49:26;100304.75;;;5.42;27.99
63339;BME280;47485;51.378;-1.342;2023-04-26T11:51:53;100300.34;;;6.28;26.41
63339;BME280;47485;51.378;-1.342;2023-04-26T11:54:28;100299.47;;;7.25;26.05
63339;BME280;47485;51.378;-1.342;2023-04-26T11:56:56;100306.36;;;3.66;28.20
63339;BME280;47485;51.378;-1.342;2023-04-26T11:59:24;100306.88;;;6.12;27.57
63339;BME280;47485;51.378;-1.342;2023-04-26T12:01:52;100305.29;;;5.63;26.82
63339;BME280;47485;51.378;-1.342;2023-04-26T12:04:19;100298.51;;;6.67;25.74
63339;BME280;47485;51.378;-1.342;2023-04-26T12:06:52;100297.94;;;7.30;25.58
63339;BME280;47485;51.378;-1.342;2023-04-26T12:09:22;100298.05;;;8.34;25.06
63339;BME280;47485;51.378;-1.342;2023-04-26T12:11:55;100300.18;;;8.17;25.08
63339;BME280;47485;51.378;-1.342;2023-04-26T12:14:22;100300.21;;;6.22;26.37
63339;BME280;47485;51.378;-1.342;2023-04-26T12:16:51;100297.18;;;6.43;26.21
63339;BME280;47485;51.378;-1.342;2023-04-26T12:19:22;100297.34;;;5.23;27.75
63339;BME280;47485;51.378;-1.342;2023-04-26T12:21:49;100297.82;;;6.05;27.29
63339;BME280;47485;51.378;-1.342;2023-04-26T12:24:25;100289.42;;;7.57;25.70
63339;BME280;47485;51.378;-1.342;2023-04-26T12:26:52;100291.27;;;8.39;24.96
63339;BME280;47485;51.378;-1.342;2023-04-26T12:29:19;100292.82;;;5.82;25.28
63339;BME280;47485;51.378;-1.342;2023-04-26T12:31:46;100294.18;;;5.69;26.92
63339;BME280;47485;51.378;-1.342;2023-04-26T12:34:14;100290.05;;;6.22;25.59
63339;BME280;47485;51.378;-1.342;2023-04-26T12:36:41;100284.52;;;7.82;25.25
63339;BME280;47485;51.378;-1.342;2023-04-26T12:39:09;100281.30;;;6.73;24.86
63339;BME280;47485;51.378;-1.342;2023-04-26T12:41:36;100280.44;;;7.52;25.58
63339;BME280;47485;51.378;-1.342;2023-04-26T12:44:03;100283.41;;;5.53;27.47
63339;BME280;47485;51.378;-1.342;2023-04-26T12:46:30;100276.07;;;6.17;27.69
63339;BME280;47485;51.378;-1.342;2023-04-26T12:48:57;100278.18;;;5.98;27.48
63339;BME280;47485;51.378;-1.342;2023-04-26T12:51:24;100280.36;;;4.32;27.89
63339;BME280;47485;51.378;-1.342;2023-04-26T12:53:51;100275.35;;;7.49;26.20
63339;BME280;47485;51.378;-1.342;2023-04-26T12:56:18;100283.67;;;5.79;27.67